Please enter the email address for your account. A verification code will be sent to you. Once you have received the verification code, you will be able to choose a new password for your account.

METAR TAF

[Source: ADDS]
METAR
LFCR 061900Z AUTO 27003KT CAVOK 30/05 Q1018 NOSIG =
LFCR 061700Z 0618/0718 27005KT CAVOK BECMG 0622/0624 11010KT TEMPO 0710/0715 VRB02KT BECMG 0715/0717 28008KT LFBA 061900Z AUTO 18002KT CAVOK 32/10 Q1013 NOSIG =
LFBA 061400Z 0615/0624 11005KT CAVOK LFSL 061900Z AUTO 32003KT 260V020 CAVOK 32/09 Q1015 NOSIG =
LFSL 061400Z 0615/0624 VRB04KT CAVOK LFLW 061830Z AUTO 29003KT 250V330 CAVOK 32/09 Q1018 =
LFLW 061400Z 0615/0624 VRB03KT CAVOK
TAF
LFCR 061700Z 0618/0718 27005KT CAVOK BECMG 0622/0624 11010KT TEMPO 0710/0715 VRB02KT BECMG 0715/0717 28008KT =
LFBA 061400Z 0615/0624 11005KT CAVOK =
LFSL 061400Z 0615/0624 VRB04KT CAVOK =
LFLW 061400Z 0615/0624 VRB03KT CAVOK =
SR / SS: 04:47 / 19:12 UTC (LFCC 2020-08-06)